Time;durP1;ratioP1;P1;durP2;ratioP2;P2;SDS_P1;SDS_P2;PMS_P1;PMS_P2;Temp;Humidity;BMP_temperature;BMP_pressure;BME280_temperature;BME280_humidity;BME280_pressure;Samples;Min_cycle;Max_cycle;Signal;HPM_P1;HPM_P2
2022/10/14 00:01:10;;;;;;;22.97;15.10;;;14.80;1.00;;;;;;5032329;28;20818;-67
2022/10/14 00:03:37;;;;;;;19.47;14.30;;;14.80;1.00;;;;;;5033386;28;20424;-67
2022/10/14 00:06:12;;;;;;;16.40;13.30;;;14.80;1.00;;;;;;5033438;28;20674;-67
2022/10/14 00:08:38;;;;;;;18.50;13.23;;;14.80;1.00;;;;;;5033838;28;20434;-68
2022/10/14 00:11:05;;;;;;;34.87;14.97;;;14.80;1.00;;;;;;5031085;28;20485;-66
2022/10/14 00:13:31;;;;;;;29.57;14.50;;;14.80;1.00;;;;;;5033576;28;20499;-67
2022/10/14 00:15:57;;;;;;;29.77;14.47;;;14.70;1.00;;;;;;5033097;28;20756;-67
2022/10/14 00:18:22;;;;;;;22.70;13.90;;;14.70;1.00;;;;;;5033383;28;20175;-67
2022/10/14 00:21:00;;;;;;;20.13;14.53;;;14.70;1.00;;;;;;5032231;28;20230;-66
2022/10/14 00:23:26;;;;;;;20.33;15.30;;;14.70;1.00;;;;;;5033213;28;20195;-67
2022/10/14 00:25:52;;;;;;;17.23;13.40;;;14.80;1.00;;;;;;5033014;28;20402;-68
2022/10/14 00:28:19;;;;;;;17.07;14.20;;;14.70;1.00;;;;;;5033221;28;20398;-68
2022/10/14 00:30:59;;;;;;;16.23;13.90;;;14.70;1.00;;;;;;5031573;28;20410;-67
2022/10/14 00:33:26;;;;;;;16.33;13.60;;;14.70;1.00;;;;;;5033176;28;20965;-67
2022/10/14 00:35:56;;;;;;;17.03;11.97;;;14.70;1.00;;;;;;5032899;28;20406;-67
2022/10/14 00:38:22;;;;;;;18.00;13.87;;;14.70;1.00;;;;;;5032654;28;20945;-67
2022/10/14 00:40:48;;;;;;;16.17;13.07;;;14.70;1.00;;;;;;5032267;28;20406;-66
2022/10/14 00:43:14;;;;;;;16.63;11.77;;;14.70;1.00;;;;;;5033889;28;20188;-66
2022/10/14 00:45:39;;;;;;;18.20;10.93;;;14.70;1.00;;;;;;5033934;28;20343;-66
2022/10/14 00:48:06;;;;;;;23.77;11.50;;;14.70;1.00;;;;;;5033733;28;20199;-67
2022/10/14 00:50:33;;;;;;;18.47;11.83;;;14.70;1.00;;;;;;5032286;28;20221;-67
2022/10/14 00:52:59;;;;;;;12.27;10.23;;;14.70;1.00;;;;;;5038520;28;20410;-67
2022/10/14 00:55:25;;;;;;;15.27;12.03;;;14.70;1.00;;;;;;5038120;28;20414;-67
2022/10/14 00:57:51;;;;;;;16.03;10.10;;;14.60;1.00;;;;;;5039430;28;20410;-67
2022/10/14 01:00:18;;;;;;;15.53;10.23;;;14.60;1.00;;;;;;5032612;28;20462;-64
2022/10/14 01:02:44;;;;;;;12.77;11.07;;;14.60;1.00;;;;;;5012194;28;20228;-66
2022/10/14 01:05:12;;;;;;;13.87;10.03;;;14.60;1.00;;;;;;5012176;28;20419;-67
2022/10/14 01:07:58;;;;;;;25.17;11.70;;;14.60;1.00;;;;;;5012573;28;20404;-66
2022/10/14 01:10:30;;;;;;;15.63;10.07;;;14.60;1.00;;;;;;5010283;28;20474;-68
2022/10/14 01:13:24;;;;;;;15.63;11.00;;;14.60;1.00;;;;;;5012620;28;21038;-66
2022/10/14 01:16:40;;;;;;;20.17;11.60;;;14.60;1.00;;;;;;5011949;28;20419;-67
2022/10/14 01:19:27;;;;;;;16.43;12.10;;;14.50;1.00;;;;;;4971133;28;20572;-68
2022/10/14 01:22:28;;;;;;;15.30;10.80;;;14.60;1.00;;;;;;4970036;28;20419;-66
2022/10/14 01:24:54;;;;;;;13.00;10.13;;;14.70;1.00;;;;;;4968254;28;20441;-65
2022/10/14 01:27:22;;;;;;;12.83;11.20;;;14.70;1.00;;;;;;4970849;28;20405;-67
2022/10/14 01:30:08;;;;;;;19.87;10.87;;;14.70;1.00;;;;;;4971209;28;20252;-67
2022/10/14 01:32:41;;;;;;;20.60;11.10;;;14.70;1.00;;;;;;4970537;28;20434;-65
2022/10/14 01:35:12;;;;;;;18.47;11.90;;;14.70;1.00;;;;;;4970749;28;20433;-67
2022/10/14 01:37:56;;;;;;;16.83;10.73;;;14.70;1.00;;;;;;4971735;28;20415;-66
2022/10/14 01:40:34;;;;;;;22.20;10.30;;;14.70;1.00;;;;;;4975868;28;20550;-70
2022/10/14 01:43:02;;;;;;;28.13;11.83;;;14.70;1.00;;;;;;4970695;28;20413;-68
2022/10/14 01:45:32;;;;;;;20.40;12.03;;;14.70;1.00;;;;;;4970852;28;20437;-66
2022/10/14 01:48:00;;;;;;;19.80;10.77;;;14.70;1.00;;;;;;4971248;28;20448;-66
2022/10/14 01:50:26;;;;;;;20.33;12.70;;;14.70;1.00;;;;;;5000748;28;20489;-65
2022/10/14 01:53:02;;;;;;;11.67;10.47;;;14.70;1.00;;;;;;5012953;28;20463;-65
2022/10/14 01:55:32;;;;;;;13.80;12.27;;;14.60;1.00;;;;;;5011851;28;20405;-67
2022/10/14 01:57:59;;;;;;;17.53;13.13;;;14.60;1.00;;;;;;5011659;28;20765;-67
2022/10/14 02:00:25;;;;;;;19.60;12.00;;;14.60;1.00;;;;;;4992843;28;20986;-66
2022/10/14 02:02:51;;;;;;;15.40;11.57;;;14.60;1.00;;;;;;5011221;28;20468;-68
2022/10/14 02:05:21;;;;;;;17.00;12.77;;;14.60;1.00;;;;;;5011084;28;20183;-69
2022/10/14 02:07:53;;;;;;;14.50;12.60;;;14.60;1.00;;;;;;5010104;28;20168;-69
2022/10/14 02:10:49;;;;;;;20.40;13.47;;;14.60;1.00;;;;;;4991144;28;20943;-69
2022/10/14 02:13:23;;;;;;;14.80;12.90;;;14.60;1.00;;;;;;5011015;28;20826;-68
2022/10/14 02:15:59;;;;;;;13.47;12.07;;;14.60;1.00;;;;;;5010574;28;20752;-67
2022/10/14 02:18:37;;;;;;;18.50;13.70;;;14.60;1.00;;;;;;5010986;28;20407;-69
2022/10/14 02:21:31;;;;;;;17.37;13.07;;;14.60;1.00;;;;;;5010017;28;20912;-69
2022/10/14 02:24:04;;;;;;;17.03;13.13;;;14.60;1.00;;;;;;5010888;28;21009;-66
2022/10/14 02:26:31;;;;;;;15.13;12.90;;;14.50;1.00;;;;;;5010623;28;20406;-68
2022/10/14 02:28:59;;;;;;;19.60;13.90;;;14.50;1.00;;;;;;4992539;28;20418;-69
2022/10/14 02:31:26;;;;;;;18.00;14.57;;;14.50;1.00;;;;;;5009595;28;20946;-68
2022/10/14 02:33:57;;;;;;;16.90;13.70;;;14.50;1.00;;;;;;5010808;28;21009;-68
2022/10/14 02:36:25;;;;;;;17.77;14.10;;;14.40;1.00;;;;;;5010573;28;20435;-68
2022/10/14 02:38:55;;;;;;;15.80;12.80;;;14.40;1.00;;;;;;5010557;28;20471;-65
2022/10/14 02:41:23;;;;;;;17.30;13.87;;;14.50;1.00;;;;;;5009739;28;20936;-66
2022/10/14 02:43:49;;;;;;;18.00;13.83;;;14.50;1.00;;;;;;5011207;28;20427;-65
2022/10/14 02:46:20;;;;;;;19.07;13.83;;;14.50;1.00;;;;;;5010399;28;20896;-69
2022/10/14 02:48:45;;;;;;;16.87;13.70;;;14.50;1.00;;;;;;5010506;28;20224;-68
2022/10/14 02:51:11;;;;;;;21.73;13.50;;;14.50;1.00;;;;;;5009404;28;20423;-67
2022/10/14 02:53:37;;;;;;;17.00;12.20;;;14.50;1.00;;;;;;5010129;28;20204;-68
2022/10/14 02:56:02;;;;;;;14.80;12.70;;;14.50;1.00;;;;;;5010205;28;20335;-68
2022/10/14 02:58:28;;;;;;;17.53;14.80;;;14.40;1.00;;;;;;5010469;28;20183;-68
2022/10/14 03:00:54;;;;;;;17.63;13.77;;;14.40;1.00;;;;;;5009200;28;20178;-66
2022/10/14 03:03:20;;;;;;;19.50;14.90;;;14.40;1.00;;;;;;5010547;28;20190;-66
2022/10/14 03:05:46;;;;;;;23.50;14.20;;;14.40;1.00;;;;;;5007688;28;20266;-66
2022/10/14 03:08:12;;;;;;;17.23;13.87;;;14.40;1.00;;;;;;5010424;28;21071;-67
2022/10/14 03:10:37;;;;;;;19.70;13.17;;;14.40;1.00;;;;;;5007517;28;20178;-69
2022/10/14 03:13:03;;;;;;;19.37;13.37;;;14.40;1.00;;;;;;5010076;28;20265;-68
2022/10/14 03:15:29;;;;;;;19.43;12.90;;;14.50;1.00;;;;;;5009313;28;20176;-68
2022/10/14 03:17:54;;;;;;;19.33;13.13;;;14.50;1.00;;;;;;5012776;28;20172;-66
2022/10/14 03:20:20;;;;;;;23.17;12.60;;;14.50;1.00;;;;;;5009515;28;20204;-67
2022/10/14 03:22:45;;;;;;;14.87;13.27;;;14.50;1.00;;;;;;5009707;28;20180;-68
2022/10/14 03:25:11;;;;;;;19.43;12.33;;;14.40;1.00;;;;;;5010018;28;20181;-67
2022/10/14 03:27:37;;;;;;;28.67;12.70;;;14.40;1.00;;;;;;5010204;28;20164;-67
2022/10/14 03:30:03;;;;;;;21.77;12.53;;;14.40;1.00;;;;;;5009764;28;20172;-68
2022/10/14 03:32:29;;;;;;;32.83;13.20;;;14.40;1.00;;;;;;5008613;28;20263;-67
2022/10/14 03:34:54;;;;;;;16.10;11.07;;;14.50;1.00;;;;;;5009850;28;20488;-67
2022/10/14 03:37:20;;;;;;;20.80;11.90;;;14.40;1.00;;;;;;5010354;28;20192;-67
2022/10/14 03:39:46;;;;;;;18.50;12.00;;;14.30;1.00;;;;;;4992559;28;20227;-67
2022/10/14 03:42:11;;;;;;;19.53;11.87;;;14.20;1.00;;;;;;5009567;28;20210;-68
2022/10/14 03:44:37;;;;;;;12.33;10.80;;;14.20;1.00;;;;;;5010174;28;20247;-68
2022/10/14 03:47:03;;;;;;;15.83;11.33;;;14.20;1.00;;;;;;5009483;28;20214;-68
2022/10/14 03:49:28;;;;;;;18.00;10.50;;;14.20;1.00;;;;;;5009588;28;20255;-68
2022/10/14 03:51:54;;;;;;;18.87;13.60;;;14.30;1.00;;;;;;5008699;28;20176;-67
2022/10/14 03:54:20;;;;;;;20.37;11.40;;;14.30;1.00;;;;;;5010023;28;20210;-66
2022/10/14 03:56:45;;;;;;;16.33;10.00;;;14.20;1.00;;;;;;5009231;28;20176;-66
2022/10/14 03:59:11;;;;;;;13.37;11.40;;;14.10;1.00;;;;;;5009996;28;20455;-69
2022/10/14 04:01:37;;;;;;;29.43;11.20;;;14.00;1.00;;;;;;5010638;28;20183;-70
2022/10/14 04:04:02;;;;;;;20.00;12.10;;;14.00;1.00;;;;;;4997736;28;20208;-69
2022/10/14 04:06:29;;;;;;;13.70;10.30;;;14.10;1.00;;;;;;5015885;28;20168;-66
2022/10/14 04:08:55;;;;;;;41.33;14.60;;;14.10;1.00;;;;;;5014624;28;20215;-68
2022/10/14 04:11:21;;;;;;;21.90;11.30;;;14.20;1.00;;;;;;5008025;28;20416;-65
2022/10/14 04:13:46;;;;;;;15.00;9.47;;;14.30;1.00;;;;;;5009991;28;20813;-67
2022/10/14 04:16:12;;;;;;;14.33;9.73;;;14.20;1.00;;;;;;5008957;28;20517;-68
2022/10/14 04:18:38;;;;;;;13.77;11.00;;;14.10;1.00;;;;;;5009252;28;20207;-70
2022/10/14 04:21:06;;;;;;;10.33;9.20;;;14.10;1.00;;;;;;5008661;28;20226;-67
2022/10/14 04:23:33;;;;;;;16.93;11.60;;;14.10;1.00;;;;;;5009258;28;20180;-66
2022/10/14 04:26:01;;;;;;;31.63;12.60;;;14.00;1.00;;;;;;5007648;28;20482;-68
2022/10/14 04:28:27;;;;;;;14.13;9.97;;;14.00;1.00;;;;;;5004969;28;20771;-68
2022/10/14 04:30:53;;;;;;;13.57;10.37;;;13.90;1.00;;;;;;5009502;28;20511;-68
2022/10/14 04:33:18;;;;;;;12.63;9.57;;;14.00;1.00;;;;;;5022248;28;20591;-67
2022/10/14 04:35:44;;;;;;;14.57;9.77;;;14.00;1.00;;;;;;5030725;28;20219;-69
2022/10/14 04:38:09;;;;;;;13.50;10.00;;;14.00;1.00;;;;;;5031293;28;20294;-68
2022/10/14 04:40:35;;;;;;;10.37;9.33;;;13.90;1.00;;;;;;5031206;28;20200;-68
2022/10/14 04:43:01;;;;;;;18.10;10.30;;;13.90;1.00;;;;;;5031956;28;20580;-65
2022/10/14 04:45:28;;;;;;;25.57;9.77;;;13.80;1.00;;;;;;5020570;28;20180;-69
2022/10/14 04:47:53;;;;;;;13.00;9.53;;;13.80;1.00;;;;;;5007775;28;20529;-68
2022/10/14 04:50:19;;;;;;;15.90;10.20;;;13.90;1.00;;;;;;5009766;28;20411;-67
2022/10/14 04:52:45;;;;;;;16.37;10.07;;;13.90;1.00;;;;;;5009456;28;20172;-68
2022/10/14 04:55:11;;;;;;;16.60;9.90;;;14.00;1.00;;;;;;5047616;22;20302;-64
2022/10/14 04:57:39;;;;;;;13.87;9.87;;;13.90;1.00;;;;;;5029858;28;20168;-64
2022/10/14 05:00:05;;;;;;;12.47;9.63;;;14.00;1.00;;;;;;5029677;28;20458;-64
2022/10/14 05:02:31;;;;;;;15.23;9.70;;;14.00;1.00;;;;;;5028353;28;20403;-64
2022/10/14 05:04:56;;;;;;;28.10;10.33;;;14.10;1.00;;;;;;5028847;28;20523;-65
2022/10/14 05:07:22;;;;;;;24.40;11.97;;;14.20;1.00;;;;;;5029551;28;20163;-64
2022/10/14 05:09:48;;;;;;;20.23;9.87;;;14.20;1.00;;;;;;5027770;28;20255;-66
2022/10/14 05:12:14;;;;;;;29.77;10.33;;;14.20;1.00;;;;;;5026687;28;20210;-66
2022/10/14 05:14:39;;;;;;;20.20;9.53;;;14.20;1.00;;;;;;5028743;28;20430;-66
2022/10/14 05:17:05;;;;;;;42.33;12.63;;;14.20;1.00;;;;;;5026606;28;20648;-66
2022/10/14 05:19:31;;;;;;;25.30;11.13;;;14.10;1.00;;;;;;5029249;28;20206;-66
2022/10/14 05:21:57;;;;;;;44.33;12.13;;;14.20;1.00;;;;;;5028706;28;20163;-66
2022/10/14 05:24:22;;;;;;;22.13;10.67;;;14.20;1.00;;;;;;5028108;28;20540;-66
2022/10/14 05:26:48;;;;;;;15.50;9.63;;;14.20;1.00;;;;;;5027442;28;20247;-66
2022/10/14 05:29:13;;;;;;;14.93;9.77;;;14.20;1.00;;;;;;5028237;28;20172;-66
2022/10/14 05:31:39;;;;;;;20.70;10.40;;;14.10;1.00;;;;;;5026716;28;20186;-66
2022/10/14 05:34:05;;;;;;;26.20;10.40;;;14.10;1.00;;;;;;5027881;28;20195;-66
2022/10/14 05:36:31;;;;;;;36.53;11.17;;;14.10;1.00;;;;;;5027851;28;20208;-65
2022/10/14 05:38:57;;;;;;;51.00;13.37;;;14.10;1.00;;;;;;5027392;28;20289;-67
2022/10/14 05:41:24;;;;;;;39.23;12.27;;;14.10;1.00;;;;;;5029720;28;20193;-65
2022/10/14 05:43:50;;;;;;;25.87;10.83;;;14.10;1.00;;;;;;5028081;28;20457;-66
2022/10/14 05:46:15;;;;;;;11.10;6.43;;;14.10;1.00;;;;;;5025118;28;20432;-66
2022/10/14 05:48:41;;;;;;;52.63;14.40;;;14.40;1.00;;;;;;5028474;28;20172;-65
2022/10/14 05:51:07;;;;;;;63.63;13.97;;;14.80;1.00;;;;;;5026895;28;20183;-64
2022/10/14 05:53:33;;;;;;;21.27;11.13;;;14.70;1.00;;;;;;5029730;28;20570;-66
2022/10/14 05:56:07;;;;;;;18.33;10.17;;;14.50;1.00;;;;;;5024700;28;20965;-64
2022/10/14 05:58:33;;;;;;;24.43;10.00;;;14.30;1.00;;;;;;5027195;28;20250;-65
2022/10/14 06:01:04;;;;;;;32.47;13.87;;;14.30;1.00;;;;;;5024130;28;20617;-66
2022/10/14 06:03:29;;;;;;;41.03;12.03;;;14.30;1.00;;;;;;5023173;28;20213;-65
2022/10/14 06:05:55;;;;;;;29.20;12.20;;;14.20;1.00;;;;;;5028025;28;20414;-65
2022/10/14 06:08:22;;;;;;;26.57;11.80;;;14.20;1.00;;;;;;5027996;28;20656;-66
2022/10/14 06:10:48;;;;;;;18.00;11.20;;;14.20;1.00;;;;;;5026269;28;20466;-64
2022/10/14 06:13:13;;;;;;;35.47;13.20;;;14.10;1.00;;;;;;5038035;28;20441;-65
2022/10/14 06:15:39;;;;;;;24.40;10.43;;;14.10;1.00;;;;;;5031735;28;20175;-65
2022/10/14 06:18:05;;;;;;;61.27;13.23;;;14.10;1.00;;;;;;5029778;28;20184;-64
2022/10/14 06:20:30;;;;;;;15.20;10.43;;;14.10;1.00;;;;;;5024212;28;20203;-65
2022/10/14 06:22:58;;;;;;;15.60;11.23;;;14.10;1.00;;;;;;5026720;28;20249;-65
2022/10/14 06:25:24;;;;;;;13.30;9.63;;;14.30;1.00;;;;;;5034361;28;20261;-65
2022/10/14 06:27:50;;;;;;;27.23;10.80;;;14.60;1.00;;;;;;5028868;28;20426;-65
2022/10/14 06:30:16;;;;;;;36.43;11.77;;;14.70;1.00;;;;;;5027078;28;20298;-66
2022/10/14 06:32:42;;;;;;;38.43;12.17;;;14.60;1.00;;;;;;5025931;28;20186;-65
2022/10/14 06:35:08;;;;;;;23.90;10.40;;;14.50;1.00;;;;;;5031484;28;20222;-66
2022/10/14 06:37:34;;;;;;;28.13;10.57;;;14.60;1.00;;;;;;5030515;28;20187;-64
2022/10/14 06:39:59;;;;;;;14.73;10.60;;;14.50;1.00;;;;;;5032030;28;20454;-65
2022/10/14 06:42:25;;;;;;;51.37;15.43;;;14.60;1.00;;;;;;5029359;28;20597;-66
2022/10/14 06:44:51;;;;;;;31.93;12.53;;;14.60;1.00;;;;;;5029492;28;20569;-66
2022/10/14 06:47:16;;;;;;;41.60;12.33;;;14.90;1.00;;;;;;5030130;28;20646;-66
2022/10/14 06:49:42;;;;;;;49.10;13.50;;;15.20;1.00;;;;;;5030635;28;20799;-66
2022/10/14 06:52:08;;;;;;;35.97;14.50;;;15.30;1.00;;;;;;5027709;28;20184;-66
2022/10/14 06:54:33;;;;;;;55.17;16.03;;;15.50;1.00;;;;;;5027605;28;20210;-66
2022/10/14 06:56:59;;;;;;;19.40;10.63;;;15.90;1.00;;;;;;5031576;28;20537;-66
2022/10/14 06:59:27;;;;;;;33.17;12.43;;;16.20;99.90;;;;;;5031324;28;20256;-66
2022/10/14 07:01:53;;;;;;;49.20;13.40;;;16.40;99.90;;;;;;5027514;28;20250;-66
2022/10/14 07:04:18;;;;;;;54.67;14.43;;;16.30;99.90;;;;;;5030033;28;20954;-66
2022/10/14 07:06:44;;;;;;;25.93;12.13;;;16.00;99.90;;;;;;5028884;28;20175;-66
2022/10/14 07:09:09;;;;;;;29.23;13.80;;;15.70;1.00;;;;;;5031696;28;20265;-66
2022/10/14 07:11:35;;;;;;;45.27;14.87;;;15.50;1.00;;;;;;5030587;28;20248;-66
2022/10/14 07:14:01;;;;;;;220.40;28.23;;;15.30;1.00;;;;;;5032836;28;20214;-66
2022/10/14 07:16:27;;;;;;;119.57;21.73;;;15.20;1.00;;;;;;5030789;28;20187;-66
2022/10/14 07:18:53;;;;;;;34.63;13.67;;;15.20;1.00;;;;;;5031635;28;20221;-66
2022/10/14 07:21:19;;;;;;;41.80;16.00;;;15.80;1.00;;;;;;5028862;28;20433;-66
2022/10/14 07:23:44;;;;;;;164.47;28.03;;;16.20;1.00;;;;;;5025147;28;20322;-67
2022/10/14 07:26:10;;;;;;;112.43;21.57;;;16.20;99.90;;;;;;5034783;28;20179;-66
2022/10/14 07:28:36;;;;;;;111.03;21.97;;;16.10;99.90;;;;;;5031389;28;20183;-65
2022/10/14 07:31:07;;;;;;;243.57;31.07;;;16.00;1.00;;;;;;5029468;28;20175;-66
2022/10/14 07:33:35;;;;;;;394.77;51.87;;;15.90;1.00;;;;;;5027256;28;20184;-66
2022/10/14 07:36:06;;;;;;;94.63;20.57;;;16.00;1.00;;;;;;5030926;28;20497;-66
2022/10/14 07:38:32;;;;;;;55.37;17.10;;;15.90;1.00;;;;;;5027492;28;20937;-64
2022/10/14 07:41:04;;;;;;;34.00;14.20;;;15.80;1.00;;;;;;5031496;28;20509;-65
2022/10/14 07:43:32;;;;;;;15.23;11.70;;;15.80;1.00;;;;;;5028749;28;20627;-65
2022/10/14 07:46:06;;;;;;;15.53;11.30;;;15.70;1.00;;;;;;5026500;28;20449;-65
2022/10/14 07:48:34;;;;;;;72.17;17.13;;;15.60;1.00;;;;;;5032009;28;20429;-65
2022/10/14 07:51:00;;;;;;;35.37;14.80;;;15.50;1.00;;;;;;5028284;28;20462;-65
2022/10/14 07:53:26;;;;;;;30.73;12.00;;;15.50;1.00;;;;;;5025584;28;20511;-65
2022/10/14 07:55:57;;;;;;;90.20;17.30;;;15.40;1.00;;;;;;5028743;28;20461;-64
2022/10/14 07:58:25;;;;;;;41.97;14.10;;;15.40;1.00;;;;;;5026474;28;20541;-64
2022/10/14 08:00:51;;;;;;;29.97;12.47;;;15.40;1.00;;;;;;5025555;28;20519;-64
2022/10/14 08:03:20;;;;;;;18.50;13.23;;;15.40;1.00;;;;;;5033769;28;20421;-65
2022/10/14 08:05:46;;;;;;;88.73;18.20;;;15.40;1.00;;;;;;5033419;28;20790;-64
2022/10/14 08:08:13;;;;;;;44.33;15.23;;;15.30;1.00;;;;;;5031384;28;20475;-65
2022/10/14 08:10:40;;;;;;;52.03;18.07;;;15.30;1.00;;;;;;5030237;28;20442;-65
2022/10/14 08:13:06;;;;;;;74.23;16.97;;;15.30;1.00;;;;;;5034936;28;20449;-65
2022/10/14 08:15:39;;;;;;;105.47;21.40;;;15.30;1.00;;;;;;5029774;28;20492;-64
2022/10/14 08:18:06;;;;;;;42.27;15.10;;;15.40;1.00;;;;;;5012522;28;20484;-63
2022/10/14 08:20:33;;;;;;;81.77;19.30;;;15.40;1.00;;;;;;5031983;28;21049;-64
2022/10/14 08:22:59;;;;;;;24.10;13.90;;;15.40;1.00;;;;;;5034778;28;20434;-65
2022/10/14 08:25:25;;;;;;;40.43;12.07;;;15.40;1.00;;;;;;5034050;28;20452;-64
2022/10/14 08:27:53;;;;;;;33.60;12.20;;;15.50;1.00;;;;;;5035729;28;20421;-65
2022/10/14 08:30:19;;;;;;;41.73;12.10;;;15.50;1.00;;;;;;5032315;28;20484;-63
2022/10/14 08:32:45;;;;;;;29.43;10.70;;;15.60;1.00;;;;;;5030455;28;20943;-65
2022/10/14 08:35:11;;;;;;;19.70;11.90;;;15.80;1.00;;;;;;5037852;28;20441;-65
2022/10/14 08:37:37;;;;;;;17.10;9.80;;;16.20;99.90;;;;;;5031153;28;20207;-65
2022/10/14 08:40:04;;;;;;;17.40;11.40;;;16.40;99.90;;;;;;5032884;28;20782;-65
2022/10/14 08:42:34;;;;;;;14.90;10.00;;;16.50;99.90;;;;;;5029658;28;20536;-65
2022/10/14 08:45:17;;;;;;;15.20;9.83;;;16.60;1.00;;;;;;5033576;28;20970;-65
2022/10/14 08:47:47;;;;;;;19.70;9.47;;;16.70;1.00;;;;;;5031501;28;20425;-66
2022/10/14 08:50:16;;;;;;;33.20;12.03;;;16.70;1.00;;;;;;5030636;28;20491;-66
2022/10/14 08:52:52;;;;;;;23.63;9.23;;;16.60;1.00;;;;;;5028784;28;20778;-66
2022/10/14 08:55:27;;;;;;;26.47;9.27;;;16.40;1.00;;;;;;5037809;28;20476;-66
2022/10/14 08:58:27;;;;;;;20.63;10.03;;;16.20;1.00;;;;;;5032474;28;20428;-65
2022/10/14 09:00:54;;;;;;;23.90;9.70;;;16.00;99.90;;;;;;5029564;28;20497;-66
2022/10/14 09:03:32;;;;;;;68.80;14.50;;;16.10;99.90;;;;;;5029288;28;21009;-65
2022/10/14 09:06:28;;;;;;;45.60;13.23;;;16.10;99.90;;;;;;5035889;28;20509;-65
2022/10/14 09:09:03;;;;;;;41.43;11.63;;;16.10;99.90;;;;;;5032357;28;20441;-65
2022/10/14 09:11:33;;;;;;;44.37;13.03;;;16.20;99.90;;;;;;5030492;28;20429;-66
2022/10/14 09:14:01;;;;;;;37.07;11.10;;;16.30;99.90;;;;;;5032174;28;20433;-65
2022/10/14 09:16:31;;;;;;;35.03;11.80;;;16.30;99.90;;;;;;5030562;28;20414;-64
2022/10/14 09:19:00;;;;;;;70.50;12.50;;;16.40;99.90;;;;;;5025778;28;20911;-64
2022/10/14 09:21:31;;;;;;;13.10;8.13;;;16.50;99.90;;;;;;5027282;28;20431;-66
2022/10/14 09:24:24;;;;;;;52.63;10.70;;;16.30;1.00;;;;;;5025774;28;20441;-66
2022/10/14 09:27:12;;;;;;;25.87;8.23;;;16.30;37.60;;;;;;5030627;28;20453;-65
2022/10/14 09:29:58;;;;;;;14.30;7.50;;;16.20;1.00;;;;;;5030799;28;20889;-66
2022/10/14 09:32:26;;;;;;;13.30;5.93;;;16.20;1.00;;;;;;5030565;28;20441;-63
2022/10/14 09:34:52;;;;;;;13.13;7.97;;;16.10;1.00;;;;;;5030921;28;20438;-66
2022/10/14 09:37:28;;;;;;;10.13;6.87;;;16.10;30.50;;;;;;5029295;28;20887;-63
2022/10/14 09:40:20;;;;;;;10.03;8.67;;;16.00;99.90;;;;;;5031382;28;20497;-64
2022/10/14 09:43:01;;;;;;;19.10;8.30;;;16.00;99.90;;;;;;5030786;28;20430;-64
2022/10/14 09:45:44;;;;;;;26.77;9.43;;;16.00;99.90;;;;;;5031445;28;20456;-64
2022/10/14 09:48:36;;;;;;;33.43;9.50;;;16.10;99.90;;;;;;5035742;28;20415;-65
2022/10/14 09:51:08;;;;;;;55.77;12.50;;;16.00;99.90;;;;;;5029683;28;20878;-65
2022/10/14 09:53:44;;;;;;;21.37;8.20;;;16.10;99.90;;;;;;5034875;28;20422;-66
2022/10/14 09:56:11;;;;;;;16.80;7.87;;;16.10;99.90;;;;;;5036849;28;20848;-65
2022/10/14 09:58:54;;;;;;;9.00;6.30;;;16.10;99.90;;;;;;5034067;28;20426;-66
2022/10/14 10:01:26;;;;;;;17.10;10.30;;;16.20;99.90;;;;;;5029034;28;20795;-66
2022/10/14 10:03:54;;;;;;;31.07;8.60;;;16.20;99.90;;;;;;5029726;28;20444;-66
2022/10/14 10:06:24;;;;;;;48.23;10.30;;;16.30;99.90;;;;;;5032863;28;20440;-66
2022/10/14 10:08:53;;;;;;;34.23;8.37;;;16.40;90.40;;;;;;5035574;28;20479;-67
2022/10/14 10:11:27;;;;;;;32.73;8.50;;;16.30;91.90;;;;;;5033467;28;20945;-66
2022/10/14 10:13:53;;;;;;;54.67;12.33;;;16.40;21.30;;;;;;5036504;28;20559;-66
2022/10/14 10:16:24;;;;;;;41.23;10.83;;;16.50;19.10;;;;;;5029562;28;21007;-66
2022/10/14 10:18:54;;;;;;;23.93;8.87;;;16.50;1.00;;;;;;5030059;28;20418;-67
2022/10/14 10:21:31;;;;;;;64.87;11.13;;;16.60;1.00;;;;;;5025011;28;20744;-67
2022/10/14 10:24:01;;;;;;;29.10;7.83;;;16.60;1.00;;;;;;5028945;28;20454;-66
2022/10/14 10:26:33;;;;;;;42.60;10.20;;;16.60;1.00;;;;;;5035715;28;20769;-66
2022/10/14 10:29:04;;;;;;;76.17;10.60;;;16.70;1.00;;;;;;5023452;28;20509;-66
2022/10/14 10:31:47;;;;;;;68.10;13.17;;;16.70;99.90;;;;;;5034470;28;20901;-66
2022/10/14 10:34:34;;;;;;;82.07;15.77;;;16.70;93.70;;;;;;5012143;28;20446;-67
2022/10/14 10:37:19;;;;;;;60.57;11.20;;;16.70;99.90;;;;;;5030433;28;20414;-66
2022/10/14 10:39:56;;;;;;;79.93;14.23;;;16.70;99.90;;;;;;5032063;28;20510;-66
2022/10/14 10:42:33;;;;;;;13.03;5.50;;;16.80;99.90;;;;;;5025923;28;20426;-66
2022/10/14 10:45:15;;;;;;;130.77;16.30;;;16.70;99.90;;;;;;5019640;28;20422;-67
2022/10/14 10:47:53;;;;;;;49.67;9.70;;;16.70;99.90;;;;;;5030377;28;20406;-66
2022/10/14 10:50:26;;;;;;;10.97;5.40;;;16.70;99.90;;;;;;5031696;28;20421;-66
2022/10/14 10:53:21;;;;;;;70.47;12.00;;;16.70;99.90;;;;;;5034663;28;20453;-67
2022/10/14 10:56:19;;;;;;;51.37;9.70;;;16.80;99.90;;;;;;5047013;22;20485;-68
2022/10/14 10:59:05;;;;;;;100.80;15.63;;;16.90;1.00;;;;;;5028773;28;20497;-68
2022/10/14 11:01:53;;;;;;;67.67;10.83;;;17.00;1.00;;;;;;5025494;28;20833;-68
2022/10/14 11:04:25;;;;;;;44.37;9.10;;;17.00;99.90;;;;;;5025267;28;20446;-69
2022/10/14 11:13:20;;;;;;;109.80;13.13;;;17.00;1.00;;;;;;5015788;28;20415;-69
2022/10/14 11:16:33;;;;;;;45.20;7.90;;;17.00;1.00;;;;;;5012286;28;20447;-68
2022/10/14 11:19:25;;;;;;;51.80;9.10;;;16.90;1.00;;;;;;4902723;29;20471;-68
2022/10/14 11:22:03;;;;;;;56.33;7.30;;;16.90;99.90;;;;;;5011993;28;20522;-69
2022/10/14 11:24:57;;;;;;;10.23;4.73;;;16.90;99.90;;;;;;5023120;28;20477;-68
2022/10/14 11:27:57;;;;;;;7.00;4.40;;;16.90;99.90;;;;;;5018338;28;20771;-69
2022/10/14 11:30:45;;;;;;;10.40;4.27;;;16.90;99.90;;;;;;5014901;28;20423;-67
2022/10/14 11:33:23;;;;;;;13.17;4.87;;;17.00;99.90;;;;;;5010884;28;20446;-68
2022/10/14 11:35:56;;;;;;;10.53;5.27;;;17.10;93.80;;;;;;5024054;28;20947;-68
2022/10/14 11:38:50;;;;;;;13.30;4.73;;;17.20;1.00;;;;;;5007963;28;20960;-69
2022/10/14 11:41:21;;;;;;;20.87;5.63;;;17.20;1.00;;;;;;4996642;28;20817;-68
2022/10/14 11:44:28;;;;;;;14.53;4.70;;;17.20;1.00;;;;;;5022651;28;20998;-69
2022/10/14 11:46:58;;;;;;;5.77;4.00;;;17.20;1.00;;;;;;5023939;28;20426;-68
2022/10/14 11:49:41;;;;;;;17.77;3.90;;;17.00;1.00;;;;;;5003237;28;20414;-69
2022/10/14 11:52:14;;;;;;;11.50;3.80;;;17.10;1.00;;;;;;5019559;28;20453;-69
2022/10/14 11:55:05;;;;;;;56.23;7.40;;;17.10;1.00;;;;;;5022335;28;20522;-70
2022/10/14 11:58:09;;;;;;;71.03;8.77;;;17.10;25.20;;;;;;5021098;28;20823;-69
2022/10/14 12:01:10;;;;;;;17.13;3.97;;;17.10;1.00;;;;;;5008339;28;20446;-68
2022/10/14 12:03:46;;;;;;;31.07;5.53;;;17.10;1.00;;;;;;5021899;28;20415;-68
2022/10/14 12:06:17;;;;;;;8.23;3.03;;;17.10;14.10;;;;;;5021738;28;20441;-70
2022/10/14 12:08:54;;;;;;;21.33;5.03;;;17.20;1.00;;;;;;5026500;28;21145;-69
2022/10/14 12:11:41;;;;;;;52.63;6.30;;;17.20;1.00;;;;;;4987888;28;20426;-68
2022/10/14 12:14:24;;;;;;;18.73;4.40;;;17.10;99.90;;;;;;5025237;28;20462;-69
2022/10/14 12:16:50;;;;;;;23.43;6.10;;;17.00;1.00;;;;;;5023319;28;20539;-69
2022/10/14 12:19:25;;;;;;;11.60;3.17;;;16.80;1.00;;;;;;5015284;28;20499;-69
2022/10/14 12:21:53;;;;;;;10.27;4.60;;;16.80;1.00;;;;;;5022369;28;20418;-69
2022/10/14 12:24:23;;;;;;;17.37;3.50;;;16.80;99.90;;;;;;5014746;28;20442;-67
2022/10/14 12:26:51;;;;;;;17.13;3.60;;;16.70;99.90;;;;;;5022267;28;20477;-70
2022/10/14 12:29:27;;;;;;;19.17;4.53;;;16.60;99.90;;;;;;5013790;28;20442;-67
2022/10/14 12:32:18;;;;;;;13.20;3.77;;;16.60;1.00;;;;;;5018311;28;20433;-68
2022/10/14 12:34:45;;;;;;;23.17;4.80;;;16.50;99.90;;;;;;5019450;28;20454;-70
2022/10/14 12:37:23;;;;;;;20.23;4.70;;;16.50;1.00;;;;;;5009251;28;20783;-69
2022/10/14 12:39:51;;;;;;;9.43;3.33;;;16.40;99.90;;;;;;5016987;28;20449;-70
2022/10/14 12:42:18;;;;;;;7.17;3.30;;;16.40;1.00;;;;;;5020076;28;20435;-69
2022/10/14 12:44:57;;;;;;;13.90;3.73;;;16.40;99.90;;;;;;5028730;28;20712;-69
2022/10/14 12:47:30;;;;;;;17.90;4.57;;;16.40;99.90;;;;;;5024129;28;20484;-70
2022/10/14 12:50:01;;;;;;;44.57;6.33;;;16.40;99.90;;;;;;5026332;28;20419;-69
2022/10/14 12:52:36;;;;;;;12.43;4.00;;;16.40;99.90;;;;;;5028524;28;20414;-68
2022/10/14 12:55:13;;;;;;;24.23;5.00;;;16.50;99.90;;;;;;5033511;28;20553;-70
2022/10/14 12:57:39;;;;;;;15.03;4.30;;;16.50;99.90;;;;;;5029187;28;20424;-66
2022/10/14 13:00:25;;;;;;;13.07;4.07;;;16.50;99.90;;;;;;5016768;28;20512;-68
2022/10/14 13:02:54;;;;;;;13.20;3.90;;;16.60;99.90;;;;;;5027439;28;20491;-70
2022/10/14 13:05:39;;;;;;;35.60;6.30;;;16.50;99.90;;;;;;5015519;28;20592;-68